South Bend International Airport (SBN)


Airport Diagram
Current Weather/Forecast (IFR Conditions)
METAR KSBN 252154Z 24009KT 8SM OVC008 01/00 A2982 RMK AO2 SNE19 CIG 006V010 SLP107 P0001 T00110000
TAF KSBN 252212Z 2522/2618 25010KT 6SM -SN BR OVC008 FM260800 25010KT 1 1/2SM -FZDZ BR OVC004 FM261300 25010KT 4SM BR OVC006

All Charts
General
Chart Name Download
AIRPORT DIAGRAM
TAKEOFF MINIMUMS
ALTERNATE MINIMUMS

Approaches
Chart Name Download
ILS OR LOC RWY 09R
ILS OR LOC RWY 27L
ILS RWY 27L (SA CAT I - II)
RNAV (GPS) RWY 09L
RNAV (GPS) RWY 09R
RNAV (GPS) RWY 18
RNAV (GPS) RWY 27L
RNAV (GPS) RWY 27R
RNAV (GPS) RWY 36
VOR RWY 18